Tancred — LALX4 — position and weather

sailwx.info

Track history (hours):
 
Tides and Currents Weather Stations Pressure Air Temp Water Temp Dewpoint Dewpoint Depression Visibility Wind Speed Wind Dir Waves Ship Positions

Tancred

Last reported at 2015-Aug-27 04:08 UTC. Time now 2015-Sep-01 04:01 UTC.
Position N 01°16' E 104°15'.

Length 190 m; draft 7.4 m.

Type: Cargo ship. MMSI: 258787000.

Date/timePositionNaut miles runAvg speedWind from/ knotsBaromVisibWave heightAir tempDewpointWater temp
2015-Aug-27 04:08N 01°16' E 104°15'915.5
2015-Aug-27 03:32N 01°15' E 104°06'9 9.2
2015-Aug-27 02:33N 01°16' E 103°57'1 0.9
2015-Aug-27 01:29N 01°17' E 103°56'0 0.0
2015-Aug-27 00:29N 01°17' E 103°56'0 0.1
2015-Aug-26 23:29N 01°17' E 103°56'0 0.0
2015-Aug-26 22:29N 01°17' E 103°56'0 0.0
2015-Aug-26 21:05N 01°17' E 103°56'0 0.0
2015-Aug-26 20:23N 01°17' E 103°56'0 0.0
2015-Aug-26 18:29N 01°17' E 103°56'0 0.0
2015-Aug-26 17:23N 01°17' E 103°56'0 0.0
2015-Aug-26 16:32N 01°17' E 103°56'0 0.0
2015-Aug-26 15:32N 01°17' E 103°56'0 0.1
2015-Aug-26 14:26N 01°17' E 103°56'0 0.1
2015-Aug-26 13:29N 01°17' E 103°56'0 0.0
2015-Aug-26 12:32N 01°17' E 103°56'0 0.0
2015-Aug-26 11:32N 01°17' E 103°56'0 0.0
2015-Aug-26 10:29N 01°17' E 103°56'0 0.0
2015-Aug-26 09:29N 01°17' E 103°56'2 1.7
2015-Aug-26 08:33N 01°15' E 103°57'11 8.7
2015-Aug-26 07:15N 01°09' E 103°47'14713.8
2015-Aug-25 20:33N 02°23' E 101°40'3115.3
2015-Aug-25 18:33N 02°40' E 101°14'1514.8
2015-Aug-25 17:33N 02°47' E 101°02'6115.0
2015-Aug-25 13:30N 03°27' E 100°16'3014.4
2015-Aug-25 11:23N 03°45' E 099°51'  
Track history (hours):
 
Tides and Currents Weather Stations Pressure Air Temp Water Temp Dewpoint Dewpoint Depression Visibility Wind Speed Wind Dir Waves Ship Positions

Tancred

Last reported at 2015-Aug-27 04:08 UTC. Time now 2015-Sep-01 04:01 UTC.
Position N 01°16' E 104°15'.

Length 190 m; draft 7.4 m.

Type: Cargo ship. MMSI: 258787000.

Date/timePositionNaut miles runAvg speedWind from/ knotsBaromVisibWave heightAir tempDewpointWater temp
2015-Aug-27 04:08N 01°16' E 104°15'915.5
2015-Aug-27 03:32N 01°15' E 104°06'9 9.2
2015-Aug-27 02:33N 01°16' E 103°57'1 0.9
2015-Aug-27 01:29N 01°17' E 103°56'0 0.0
2015-Aug-27 00:29N 01°17' E 103°56'0 0.1
2015-Aug-26 23:29N 01°17' E 103°56'0 0.0
2015-Aug-26 22:29N 01°17' E 103°56'0 0.0
2015-Aug-26 21:05N 01°17' E 103°56'0 0.0
2015-Aug-26 20:23N 01°17' E 103°56'0 0.0
2015-Aug-26 18:29N 01°17' E 103°56'0 0.0
2015-Aug-26 17:23N 01°17' E 103°56'0 0.0
2015-Aug-26 16:32N 01°17' E 103°56'0 0.0
2015-Aug-26 15:32N 01°17' E 103°56'0 0.1
2015-Aug-26 14:26N 01°17' E 103°56'0 0.1
2015-Aug-26 13:29N 01°17' E 103°56'0 0.0
2015-Aug-26 12:32N 01°17' E 103°56'0 0.0
2015-Aug-26 11:32N 01°17' E 103°56'0 0.0
2015-Aug-26 10:29N 01°17' E 103°56'0 0.0
2015-Aug-26 09:29N 01°17' E 103°56'2 1.7
2015-Aug-26 08:33N 01°15' E 103°57'11 8.7
2015-Aug-26 07:15N 01°09' E 103°47'14713.8
2015-Aug-25 20:33N 02°23' E 101°40'3115.3
2015-Aug-25 18:33N 02°40' E 101°14'1514.8
2015-Aug-25 17:33N 02°47' E 101°02'6115.0
2015-Aug-25 13:30N 03°27' E 100°16'3014.4
2015-Aug-25 11:23N 03°45' E 099°51'  

Dump ship's entire track history